sensor_id;sensor_type;location;lat;lon;timestamp;temperature;humidity
9265;DHT22;4669;49.594;10.958;2022-07-23T00:02:33;25.00;72.10
9265;DHT22;4669;49.594;10.958;2022-07-23T00:07:35;25.10;72.70
9265;DHT22;4669;49.594;10.958;2022-07-23T00:12:37;25.10;72.00
9265;DHT22;4669;49.594;10.958;2022-07-23T00:17:41;24.90;73.00
9265;DHT22;4669;49.594;10.958;2022-07-23T00:22:47;24.50;74.40
9265;DHT22;4669;49.594;10.958;2022-07-23T00:27:48;24.50;75.00
9265;DHT22;4669;49.594;10.958;2022-07-23T00:32:53;24.60;73.70
9265;DHT22;4669;49.594;10.958;2022-07-23T00:37:57;24.60;73.80
9265;DHT22;4669;49.594;10.958;2022-07-23T00:42:59;24.70;73.60
9265;DHT22;4669;49.594;10.958;2022-07-23T00:48:03;24.80;73.70
9265;DHT22;4669;49.594;10.958;2022-07-23T00:53:05;24.80;73.90
9265;DHT22;4669;49.594;10.958;2022-07-23T00:58:09;24.80;74.40
9265;DHT22;4669;49.594;10.958;2022-07-23T01:03:12;24.70;75.00
9265;DHT22;4669;49.594;10.958;2022-07-23T01:08:14;24.70;75.00
9265;DHT22;4669;49.594;10.958;2022-07-23T01:13:18;24.70;75.40
9265;DHT22;4669;49.594;10.958;2022-07-23T01:18:21;24.70;75.30
9265;DHT22;4669;49.594;10.958;2022-07-23T01:23:25;24.70;76.50
9265;DHT22;4669;49.594;10.958;2022-07-23T01:28:30;24.70;75.80
9265;DHT22;4669;49.594;10.958;2022-07-23T01:33:34;24.80;75.70
9265;DHT22;4669;49.594;10.958;2022-07-23T01:38:37;24.70;75.80
9265;DHT22;4669;49.594;10.958;2022-07-23T01:43:40;24.60;77.00
9265;DHT22;4669;49.594;10.958;2022-07-23T01:48:42;24.60;76.70
9265;DHT22;4669;49.594;10.958;2022-07-23T01:54:21;24.60;77.00
9265;DHT22;4669;49.594;10.958;2022-07-23T01:59:23;24.60;77.40
9265;DHT22;4669;49.594;10.958;2022-07-23T02:04:26;24.50;77.60
9265;DHT22;4669;49.594;10.958;2022-07-23T02:09:30;24.30;78.20
9265;DHT22;4669;49.594;10.958;2022-07-23T02:14:32;24.30;78.40
9265;DHT22;4669;49.594;10.958;2022-07-23T02:19:36;24.30;78.70
9265;DHT22;4669;49.594;10.958;2022-07-23T02:24:40;24.40;78.70
9265;DHT22;4669;49.594;10.958;2022-07-23T02:29:42;24.30;79.60
9265;DHT22;4669;49.594;10.958;2022-07-23T02:34:44;24.20;80.80
9265;DHT22;4669;49.594;10.958;2022-07-23T02:39:47;24.20;81.30
9265;DHT22;4669;49.594;10.958;2022-07-23T02:44:49;24.10;82.20
9265;DHT22;4669;49.594;10.958;2022-07-23T02:49:52;24.00;82.30
9265;DHT22;4669;49.594;10.958;2022-07-23T02:54:55;23.80;83.10
9265;DHT22;4669;49.594;10.958;2022-07-23T02:59:57;23.80;83.30
9265;DHT22;4669;49.594;10.958;2022-07-23T03:04:59;23.70;84.40
9265;DHT22;4669;49.594;10.958;2022-07-23T03:10:03;23.70;84.20
9265;DHT22;4669;49.594;10.958;2022-07-23T03:15:06;23.60;84.70
9265;DHT22;4669;49.594;10.958;2022-07-23T03:20:09;23.50;85.40
9265;DHT22;4669;49.594;10.958;2022-07-23T03:25:14;23.50;85.50
9265;DHT22;4669;49.594;10.958;2022-07-23T03:30:16;23.50;85.70
9265;DHT22;4669;49.594;10.958;2022-07-23T03:35:18;23.50;85.50
9265;DHT22;4669;49.594;10.958;2022-07-23T03:40:36;23.50;86.10
9265;DHT22;4669;49.594;10.958;2022-07-23T03:45:38;23.40;86.50
9265;DHT22;4669;49.594;10.958;2022-07-23T03:50:41;23.30;86.90
9265;DHT22;4669;49.594;10.958;2022-07-23T03:55:46;23.30;87.40
9265;DHT22;4669;49.594;10.958;2022-07-23T04:00:48;23.40;87.60
9265;DHT22;4669;49.594;10.958;2022-07-23T04:05:50;23.30;88.20
9265;DHT22;4669;49.594;10.958;2022-07-23T04:10:54;23.20;88.70
9265;DHT22;4669;49.594;10.958;2022-07-23T04:15:57;23.10;89.50
9265;DHT22;4669;49.594;10.958;2022-07-23T04:20:59;23.10;89.90
9265;DHT22;4669;49.594;10.958;2022-07-23T04:26:02;23.20;90.00
9265;DHT22;4669;49.594;10.958;2022-07-23T04:31:06;23.20;90.20
9265;DHT22;4669;49.594;10.958;2022-07-23T04:36:10;23.20;90.20
9265;DHT22;4669;49.594;10.958;2022-07-23T04:41:14;23.10;90.30
9265;DHT22;4669;49.594;10.958;2022-07-23T04:46:16;23.20;90.30
9265;DHT22;4669;49.594;10.958;2022-07-23T04:51:22;23.30;90.20
9265;DHT22;4669;49.594;10.958;2022-07-23T04:56:25;23.30;90.20
9265;DHT22;4669;49.594;10.958;2022-07-23T05:01:28;23.40;90.10
9265;DHT22;4669;49.594;10.958;2022-07-23T05:06:29;23.40;90.10
9265;DHT22;4669;49.594;10.958;2022-07-23T05:11:33;23.20;90.30
9265;DHT22;4669;49.594;10.958;2022-07-23T05:16:35;23.20;90.60
9265;DHT22;4669;49.594;10.958;2022-07-23T05:21:43;23.20;90.70
9265;DHT22;4669;49.594;10.958;2022-07-23T05:26:47;23.30;90.70
9265;DHT22;4669;49.594;10.958;2022-07-23T05:31:49;23.40;90.70
9265;DHT22;4669;49.594;10.958;2022-07-23T05:36:51;23.60;90.40
9265;DHT22;4669;49.594;10.958;2022-07-23T05:41:56;23.80;90.20
9265;DHT22;4669;49.594;10.958;2022-07-23T05:46:58;24.00;90.00
9265;DHT22;4669;49.594;10.958;2022-07-23T05:52:04;24.20;89.90
9265;DHT22;4669;49.594;10.958;2022-07-23T05:57:24;24.30;89.30
9265;DHT22;4669;49.594;10.958;2022-07-23T06:02:26;24.30;89.00
9265;DHT22;4669;49.594;10.958;2022-07-23T06:07:29;24.40;89.00
9265;DHT22;4669;49.594;10.958;2022-07-23T06:12:33;24.60;88.90
9265;DHT22;4669;49.594;10.958;2022-07-23T06:17:35;24.70;87.70
9265;DHT22;4669;49.594;10.958;2022-07-23T06:22:39;24.60;87.50
9265;DHT22;4669;49.594;10.958;2022-07-23T06:27:43;24.60;86.80
9265;DHT22;4669;49.594;10.958;2022-07-23T06:32:46;24.50;85.50
9265;DHT22;4669;49.594;10.958;2022-07-23T06:37:49;24.50;84.90
9265;DHT22;4669;49.594;10.958;2022-07-23T06:42:53;24.60;83.70
9265;DHT22;4669;49.594;10.958;2022-07-23T06:47:57;24.60;83.00
9265;DHT22;4669;49.594;10.958;2022-07-23T06:52:59;24.90;82.60
9265;DHT22;4669;49.594;10.958;2022-07-23T06:58:03;25.10;81.90
9265;DHT22;4669;49.594;10.958;2022-07-23T07:03:05;25.20;82.00
9265;DHT22;4669;49.594;10.958;2022-07-23T07:08:07;25.10;81.80
9265;DHT22;4669;49.594;10.958;2022-07-23T07:13:10;25.10;82.10
9265;DHT22;4669;49.594;10.958;2022-07-23T07:18:12;25.20;82.20
9265;DHT22;4669;49.594;10.958;2022-07-23T07:23:14;25.30;81.70
9265;DHT22;4669;49.594;10.958;2022-07-23T07:28:17;25.30;82.20
9265;DHT22;4669;49.594;10.958;2022-07-23T07:33:19;25.20;82.30
9265;DHT22;4669;49.594;10.958;2022-07-23T07:38:22;25.00;82.50
9265;DHT22;4669;49.594;10.958;2022-07-23T07:43:26;24.70;82.30
9265;DHT22;4669;49.594;10.958;2022-07-23T07:48:28;24.30;83.70
9265;DHT22;4669;49.594;10.958;2022-07-23T07:53:30;23.10;93.30
9265;DHT22;4669;49.594;10.958;2022-07-23T07:58:33;22.40;95.10
9265;DHT22;4669;49.594;10.958;2022-07-23T08:03:35;22.40;96.20
9265;DHT22;4669;49.594;10.958;2022-07-23T08:08:37;22.60;96.00
9265;DHT22;4669;49.594;10.958;2022-07-23T08:13:40;22.90;94.40
9265;DHT22;4669;49.594;10.958;2022-07-23T08:18:44;22.90;93.30
9265;DHT22;4669;49.594;10.958;2022-07-23T08:23:47;22.90;93.40
9265;DHT22;4669;49.594;10.958;2022-07-23T08:28:50;22.80;95.10
9265;DHT22;4669;49.594;10.958;2022-07-23T08:33:52;22.90;95.40
9265;DHT22;4669;49.594;10.958;2022-07-23T08:38:55;23.00;95.60
9265;DHT22;4669;49.594;10.958;2022-07-23T08:43:59;23.40;95.50
9265;DHT22;4669;49.594;10.958;2022-07-23T08:49:02;23.60;94.90
9265;DHT22;4669;49.594;10.958;2022-07-23T08:54:04;23.70;95.20
9265;DHT22;4669;49.594;10.958;2022-07-23T08:59:07;23.90;95.30
9265;DHT22;4669;49.594;10.958;2022-07-23T09:04:09;24.00;95.10
9265;DHT22;4669;49.594;10.958;2022-07-23T09:09:17;23.90;94.40
9265;DHT22;4669;49.594;10.958;2022-07-23T09:14:36;23.90;94.20
9265;DHT22;4669;49.594;10.958;2022-07-23T09:19:39;24.20;95.10
9265;DHT22;4669;49.594;10.958;2022-07-23T09:25:02;24.50;95.10
9265;DHT22;4669;49.594;10.958;2022-07-23T09:30:07;24.70;95.30
9265;DHT22;4669;49.594;10.958;2022-07-23T09:35:10;24.90;94.90
9265;DHT22;4669;49.594;10.958;2022-07-23T09:40:12;25.00;94.90
9265;DHT22;4669;49.594;10.958;2022-07-23T09:45:19;25.00;94.30
9265;DHT22;4669;49.594;10.958;2022-07-23T09:50:21;25.00;94.20
9265;DHT22;4669;49.594;10.958;2022-07-23T09:55:31;25.10;94.20
9265;DHT22;4669;49.594;10.958;2022-07-23T10:00:37;25.30;94.40
9265;DHT22;4669;49.594;10.958;2022-07-23T10:05:41;25.30;93.90
9265;DHT22;4669;49.594;10.958;2022-07-23T10:11:03;25.20;94.10
9265;DHT22;4669;49.594;10.958;2022-07-23T10:16:38;25.10;94.90
9265;DHT22;4669;49.594;10.958;2022-07-23T10:21:45;25.20;94.60
9265;DHT22;4669;49.594;10.958;2022-07-23T10:26:55;25.20;94.70
9265;DHT22;4669;49.594;10.958;2022-07-23T10:32:04;25.10;94.70
9265;DHT22;4669;49.594;10.958;2022-07-23T10:37:14;25.20;94.90
9265;DHT22;4669;49.594;10.958;2022-07-23T10:42:20;25.30;95.50
9265;DHT22;4669;49.594;10.958;2022-07-23T10:47:28;25.60;95.20
9265;DHT22;4669;49.594;10.958;2022-07-23T10:52:41;25.70;95.40
9265;DHT22;4669;49.594;10.958;2022-07-23T10:58:05;25.70;95.10
9265;DHT22;4669;49.594;10.958;2022-07-23T11:08:35;25.70;95.40
9265;DHT22;4669;49.594;10.958;2022-07-23T11:13:45;25.50;95.10
9265;DHT22;4669;49.594;10.958;2022-07-23T11:19:07;25.30;95.20
9265;DHT22;4669;49.594;10.958;2022-07-23T11:24:13;25.20;95.30
9265;DHT22;4669;49.594;10.958;2022-07-23T11:34:55;25.50;95.00
9265;DHT22;4669;49.594;10.958;2022-07-23T11:39:58;25.50;95.00
9265;DHT22;4669;49.594;10.958;2022-07-23T11:45:00;25.50;94.60
9265;DHT22;4669;49.594;10.958;2022-07-23T11:50:05;25.50;94.50
9265;DHT22;4669;49.594;10.958;2022-07-23T11:55:10;25.40;94.40
9265;DHT22;4669;49.594;10.958;2022-07-23T12:00:15;25.40;95.00
9265;DHT22;4669;49.594;10.958;2022-07-23T12:05:19;25.40;95.10
9265;DHT22;4669;49.594;10.958;2022-07-23T12:10:26;25.40;94.80
9265;DHT22;4669;49.594;10.958;2022-07-23T12:15:30;25.50;94.90
9265;DHT22;4669;49.594;10.958;2022-07-23T12:20:36;25.60;94.60
9265;DHT22;4669;49.594;10.958;2022-07-23T12:25:41;26.00;94.70
9265;DHT22;4669;49.594;10.958;2022-07-23T12:30:47;26.40;94.20
9265;DHT22;4669;49.594;10.958;2022-07-23T12:35:49;26.90;93.60
9265;DHT22;4669;49.594;10.958;2022-07-23T12:40:54;27.10;93.30
9265;DHT22;4669;49.594;10.958;2022-07-23T12:46:03;27.20;93.20
9265;DHT22;4669;49.594;10.958;2022-07-23T12:51:06;27.40;92.60
9265;DHT22;4669;49.594;10.958;2022-07-23T12:56:11;27.50;92.00
9265;DHT22;4669;49.594;10.958;2022-07-23T13:01:24;27.80;91.80
9265;DHT22;4669;49.594;10.958;2022-07-23T13:06:28;28.00;91.30
9265;DHT22;4669;49.594;10.958;2022-07-23T13:11:31;28.10;90.80
9265;DHT22;4669;49.594;10.958;2022-07-23T13:16:33;27.90;90.20
9265;DHT22;4669;49.594;10.958;2022-07-23T13:21:35;27.70;90.20
9265;DHT22;4669;49.594;10.958;2022-07-23T13:26:39;27.80;90.20
9265;DHT22;4669;49.594;10.958;2022-07-23T13:31:41;27.90;87.20
9265;DHT22;4669;49.594;10.958;2022-07-23T13:36:44;28.00;88.70
9265;DHT22;4669;49.594;10.958;2022-07-23T13:41:47;28.00;88.50
9265;DHT22;4669;49.594;10.958;2022-07-23T13:46:49;27.90;88.70
9265;DHT22;4669;49.594;10.958;2022-07-23T13:51:51;27.80;86.80
9265;DHT22;4669;49.594;10.958;2022-07-23T13:56:54;28.00;86.30
9265;DHT22;4669;49.594;10.958;2022-07-23T14:01:57;28.20;85.50
9265;DHT22;4669;49.594;10.958;2022-07-23T14:06:59;28.20;85.60
9265;DHT22;4669;49.594;10.958;2022-07-23T14:12:03;28.00;87.20
9265;DHT22;4669;49.594;10.958;2022-07-23T14:17:05;27.90;87.10
9265;DHT22;4669;49.594;10.958;2022-07-23T14:22:07;28.00;86.40
9265;DHT22;4669;49.594;10.958;2022-07-23T14:27:11;28.00;85.20
9265;DHT22;4669;49.594;10.958;2022-07-23T14:32:13;28.20;80.30
9265;DHT22;4669;49.594;10.958;2022-07-23T14:37:15;28.40;74.80
9265;DHT22;4669;49.594;10.958;2022-07-23T14:42:19;28.30;73.10
9265;DHT22;4669;49.594;10.958;2022-07-23T14:47:21;28.40;73.20
9265;DHT22;4669;49.594;10.958;2022-07-23T14:52:23;28.50;71.00
9265;DHT22;4669;49.594;10.958;2022-07-23T14:57:26;28.70;69.90
9265;DHT22;4669;49.594;10.958;2022-07-23T15:02:28;28.90;69.10
9265;DHT22;4669;49.594;10.958;2022-07-23T15:07:30;28.90;68.80
9265;DHT22;4669;49.594;10.958;2022-07-23T15:12:34;28.60;68.40
9265;DHT22;4669;49.594;10.958;2022-07-23T15:17:36;28.30;69.30
9265;DHT22;4669;49.594;10.958;2022-07-23T15:22:39;28.20;70.10
9265;DHT22;4669;49.594;10.958;2022-07-23T15:27:42;28.10;70.60
9265;DHT22;4669;49.594;10.958;2022-07-23T15:32:44;28.00;71.30
9265;DHT22;4669;49.594;10.958;2022-07-23T15:37:47;27.90;71.40
9265;DHT22;4669;49.594;10.958;2022-07-23T15:42:50;28.10;72.00
9265;DHT22;4669;49.594;10.958;2022-07-23T15:47:52;28.80;70.90
9265;DHT22;4669;49.594;10.958;2022-07-23T15:52:56;28.90;70.00
9265;DHT22;4669;49.594;10.958;2022-07-23T15:57:59;28.70;70.10
9265;DHT22;4669;49.594;10.958;2022-07-23T16:03:01;28.30;71.10
9265;DHT22;4669;49.594;10.958;2022-07-23T16:08:04;28.00;71.20
9265;DHT22;4669;49.594;10.958;2022-07-23T16:13:09;27.80;71.40
9265;DHT22;4669;49.594;10.958;2022-07-23T16:18:11;28.70;70.40
9265;DHT22;4669;49.594;10.958;2022-07-23T16:23:13;29.30;68.90
9265;DHT22;4669;49.594;10.958;2022-07-23T16:28:16;29.30;68.10
9265;DHT22;4669;49.594;10.958;2022-07-23T16:33:18;29.20;68.40
9265;DHT22;4669;49.594;10.958;2022-07-23T16:38:20;29.30;68.20
9265;DHT22;4669;49.594;10.958;2022-07-23T16:43:24;29.30;66.80
9265;DHT22;4669;49.594;10.958;2022-07-23T16:48:27;29.30;66.30
9265;DHT22;4669;49.594;10.958;2022-07-23T16:53:29;29.00;67.00
9265;DHT22;4669;49.594;10.958;2022-07-23T16:58:33;28.70;67.80
9265;DHT22;4669;49.594;10.958;2022-07-23T17:03:36;29.10;66.90
9265;DHT22;4669;49.594;10.958;2022-07-23T17:08:38;29.30;67.30
9265;DHT22;4669;49.594;10.958;2022-07-23T17:13:41;29.10;67.40
9265;DHT22;4669;49.594;10.958;2022-07-23T17:18:43;28.90;66.30
9265;DHT22;4669;49.594;10.958;2022-07-23T17:23:45;28.70;67.30
9265;DHT22;4669;49.594;10.958;2022-07-23T17:28:49;28.80;67.50
9265;DHT22;4669;49.594;10.958;2022-07-23T17:33:51;28.60;67.20
9265;DHT22;4669;49.594;10.958;2022-07-23T17:38:53;28.40;67.30
9265;DHT22;4669;49.594;10.958;2022-07-23T17:43:56;28.20;67.70
9265;DHT22;4669;49.594;10.958;2022-07-23T17:48:59;28.30;67.20
9265;DHT22;4669;49.594;10.958;2022-07-23T17:54:02;28.00;68.00
9265;DHT22;4669;49.594;10.958;2022-07-23T17:59:05;27.80;67.70
9265;DHT22;4669;49.594;10.958;2022-07-23T18:04:08;27.80;67.30
9265;DHT22;4669;49.594;10.958;2022-07-23T18:09:14;27.80;67.30
9265;DHT22;4669;49.594;10.958;2022-07-23T18:14:17;27.60;67.90
9265;DHT22;4669;49.594;10.958;2022-07-23T18:19:19;27.50;68.00
9265;DHT22;4669;49.594;10.958;2022-07-23T18:24:21;27.30;67.70
9265;DHT22;4669;49.594;10.958;2022-07-23T18:29:26;27.00;68.10
9265;DHT22;4669;49.594;10.958;2022-07-23T18:34:28;26.80;68.90
9265;DHT22;4669;49.594;10.958;2022-07-23T18:39:30;26.70;69.20
9265;DHT22;4669;49.594;10.958;2022-07-23T18:44:37;26.60;69.90
9265;DHT22;4669;49.594;10.958;2022-07-23T18:49:39;26.50;70.10
9265;DHT22;4669;49.594;10.958;2022-07-23T18:54:41;26.40;71.20
9265;DHT22;4669;49.594;10.958;2022-07-23T18:59:44;26.30;71.20
9265;DHT22;4669;49.594;10.958;2022-07-23T19:04:47;26.20;71.10
9265;DHT22;4669;49.594;10.958;2022-07-23T19:09:49;26.10;71.40
9265;DHT22;4669;49.594;10.958;2022-07-23T19:14:52;26.00;73.10
9265;DHT22;4669;49.594;10.958;2022-07-23T19:19:54;25.90;73.90
9265;DHT22;4669;49.594;10.958;2022-07-23T19:24:56;25.80;73.90
9265;DHT22;4669;49.594;10.958;2022-07-23T19:29:59;25.70;74.20
9265;DHT22;4669;49.594;10.958;2022-07-23T19:35:02;25.50;74.80
9265;DHT22;4669;49.594;10.958;2022-07-23T19:40:06;25.40;75.50
9265;DHT22;4669;49.594;10.958;2022-07-23T19:45:10;25.20;76.20
9265;DHT22;4669;49.594;10.958;2022-07-23T19:50:12;25.20;76.40
9265;DHT22;4669;49.594;10.958;2022-07-23T19:55:14;25.10;77.20
9265;DHT22;4669;49.594;10.958;2022-07-23T20:00:18;25.00;77.60
9265;DHT22;4669;49.594;10.958;2022-07-23T20:05:21;24.90;78.50
9265;DHT22;4669;49.594;10.958;2022-07-23T20:10:23;24.80;78.90
9265;DHT22;4669;49.594;10.958;2022-07-23T20:15:27;24.70;79.20
9265;DHT22;4669;49.594;10.958;2022-07-23T20:20:29;24.70;79.80
9265;DHT22;4669;49.594;10.958;2022-07-23T20:25:31;24.60;80.30
9265;DHT22;4669;49.594;10.958;2022-07-23T20:30:35;24.60;81.10
9265;DHT22;4669;49.594;10.958;2022-07-23T20:35:37;24.40;81.30
9265;DHT22;4669;49.594;10.958;2022-07-23T20:40:39;24.40;81.90
9265;DHT22;4669;49.594;10.958;2022-07-23T20:45:43;24.30;82.30
9265;DHT22;4669;49.594;10.958;2022-07-23T20:50:45;24.20;82.80
9265;DHT22;4669;49.594;10.958;2022-07-23T20:55:49;24.20;83.30
9265;DHT22;4669;49.594;10.958;2022-07-23T21:00:52;24.10;84.10
9265;DHT22;4669;49.594;10.958;2022-07-23T21:05:54;23.90;85.50
9265;DHT22;4669;49.594;10.958;2022-07-23T21:10:56;23.90;85.30
9265;DHT22;4669;49.594;10.958;2022-07-23T21:16:00;23.80;85.60
9265;DHT22;4669;49.594;10.958;2022-07-23T21:21:02;23.80;85.20
9265;DHT22;4669;49.594;10.958;2022-07-23T21:26:12;23.70;85.60
9265;DHT22;4669;49.594;10.958;2022-07-23T21:31:16;23.70;86.30
9265;DHT22;4669;49.594;10.958;2022-07-23T21:36:18;23.60;86.20
9265;DHT22;4669;49.594;10.958;2022-07-23T21:41:20;23.50;86.80
9265;DHT22;4669;49.594;10.958;2022-07-23T21:46:24;23.50;87.20
9265;DHT22;4669;49.594;10.958;2022-07-23T21:51:26;23.50;85.40
9265;DHT22;4669;49.594;10.958;2022-07-23T21:56:29;23.40;83.90
9265;DHT22;4669;49.594;10.958;2022-07-23T22:01:32;23.20;83.10
9265;DHT22;4669;49.594;10.958;2022-07-23T22:06:34;23.10;83.60
9265;DHT22;4669;49.594;10.958;2022-07-23T22:11:36;23.10;84.50
9265;DHT22;4669;49.594;10.958;2022-07-23T22:16:40;23.10;84.30
9265;DHT22;4669;49.594;10.958;2022-07-23T22:21:42;23.20;85.00
9265;DHT22;4669;49.594;10.958;2022-07-23T22:26:45;23.20;85.00
9265;DHT22;4669;49.594;10.958;2022-07-23T22:31:49;23.10;84.90
9265;DHT22;4669;49.594;10.958;2022-07-23T22:36:51;23.00;85.00
9265;DHT22;4669;49.594;10.958;2022-07-23T22:41:53;22.90;85.00
9265;DHT22;4669;49.594;10.958;2022-07-23T22:46:56;22.90;85.40
9265;DHT22;4669;49.594;10.958;2022-07-23T22:51:58;22.90;85.40
9265;DHT22;4669;49.594;10.958;2022-07-23T22:57:00;22.90;85.70
9265;DHT22;4669;49.594;10.958;2022-07-23T23:02:04;22.70;85.80
9265;DHT22;4669;49.594;10.958;2022-07-23T23:07:06;22.60;86.10
9265;DHT22;4669;49.594;10.958;2022-07-23T23:12:08;22.60;86.70
9265;DHT22;4669;49.594;10.958;2022-07-23T23:17:11;22.50;86.70
9265;DHT22;4669;49.594;10.958;2022-07-23T23:22:13;22.50;86.50
9265;DHT22;4669;49.594;10.958;2022-07-23T23:27:15;22.40;87.00
9265;DHT22;4669;49.594;10.958;2022-07-23T23:32:19;22.40;86.80
9265;DHT22;4669;49.594;10.958;2022-07-23T23:37:21;22.30;87.50
9265;DHT22;4669;49.594;10.958;2022-07-23T23:42:23;22.30;87.50
9265;DHT22;4669;49.594;10.958;2022-07-23T23:47:26;22.20;87.90
9265;DHT22;4669;49.594;10.958;2022-07-23T23:52:28;22.10;87.80
9265;DHT22;4669;49.594;10.958;2022-07-23T23:57:30;22.10;87.50
